Hovedside
METAR-TAF:

METAR-TAF

Lufthavner :

Bagdad, Irak

breddegrad: 33-15-45N, lengdegrad: 44-14-04E, høyde over havet: 35 m

Gjeldene værobservasjon

Denne rapporten ble laget for 2 timer og 52 minutter siden, klokken 02:00 UTC
Vind 6 kt fra Nord-nordvest
Temperatur 25°C
Luftfuktighet 36%
Trykk 1007 hPa
Sikt 10 km eller mer
ingen skyer under 1500 m og ingen bygeskyer

METAR: ORBI 210200Z 33006KT CAVOK 25/09 Q1007 NOSIG

Tid: 07:52 (04:52 UTC)

Varsel

Denne rapporten ble laget for 6 timer og 52 minutter siden, klokken 22:00 UTC
Varsel gyldig fra 21. klokken 00 UTC til 21. klokken 24 UTC
Vind 10 kt fra Nordvest
Sikt: 7000 m

TAF: ORBI 202200Z 2100/2124 32010KT 7000 NSC

Værobservasjoner og værvarsel for over 4000 flyplasser (METAR- og TAF-rapporter).

Tilgjengelige stasjoner er representert av de røde og gule prikkene på kartet.

Hold musepekeren over prikken for å se navnet på stasjonen.

Klikk så for å se værobservasjoner og -varsler.

For å forandre kartet kan du klikke på den grønne knappen med svart kryss for å zoome inn, på den grønne knappen med strek for å zoome ut, eller på de grønne pilene for å se tilstøtende kart.


METAR-TAF: